Time;durP1;ratioP1;P1;durP2;ratioP2;P2;SDS_P1;SDS_P2;PMS_P1;PMS_P2;Temp;Humidity;BMP_temperature;BMP_pressure;BME280_temperature;BME280_humidity;BME280_pressure;Samples;Min_cycle;Max_cycle;Signal;HPM_P1;HPM_P2
2022/01/20 00:02:43;;;;;;;62.90;25.00;;;;;;;-3.15;79.29;100292.50;4471869;31;34119;-79
2022/01/20 00:08:29;;;;;;;62.97;24.83;;;;;;;-3.08;78.72;100290.66;4486545;31;35041;-79
2022/01/20 00:26:45;;;;;;;49.78;22.40;;;;;;;-2.80;77.82;100295.00;4470200;31;34125;-79
2022/01/20 00:29:49;;;;;;;56.83;21.42;;;;;;;-2.77;77.80;100295.38;4494672;31;34844;-79
2022/01/20 00:33:00;;;;;;;53.05;21.77;;;;;;;-2.61;77.44;100283.41;4478054;31;35891;-78
2022/01/20 00:38:42;;;;;;;59.33;21.33;;;;;;;-4.86;86.66;100307.66;4488070;31;34460;-79
2022/01/20 00:41:29;;;;;;;52.72;22.37;;;;;;;-4.39;86.79;100306.09;4481052;31;34319;-79
2022/01/20 00:44:15;;;;;;;46.75;20.15;;;;;;;-3.59;83.33;100295.72;4494230;31;35957;-80
2022/01/20 00:47:03;;;;;;;48.08;20.12;;;;;;;-2.93;79.61;100303.88;4470288;31;34400;-79
2022/01/20 00:49:49;;;;;;;49.03;20.35;;;;;;;-3.02;79.78;100302.41;4478521;31;34062;-78
2022/01/20 00:52:36;;;;;;;40.15;18.33;;;;;;;-2.59;77.23;100310.03;4475847;31;34609;-79
2022/01/20 00:55:22;;;;;;;41.70;17.77;;;;;;;-2.60;76.85;100305.69;4474841;31;34630;-79
2022/01/20 00:58:09;;;;;;;42.03;16.98;;;;;;;-2.53;76.45;100303.84;4482215;31;34574;-79
2022/01/20 01:00:55;;;;;;;36.08;16.25;;;;;;;-2.41;75.40;100299.47;4475256;31;35194;-79
2022/01/20 01:03:41;;;;;;;44.05;17.37;;;;;;;-2.60;75.35;100303.00;4484844;31;34644;-79
2022/01/20 01:09:17;;;;;;;45.92;17.45;;;;;;;-2.53;75.19;100306.53;4481068;31;34711;-79
2022/01/20 01:12:06;;;;;;;45.92;17.70;;;;;;;-2.57;75.70;100305.28;4488694;31;34163;-78
2022/01/20 01:14:53;;;;;;;38.85;18.85;;;;;;;-2.60;75.23;100300.34;4483081;31;34545;-79
2022/01/20 01:23:45;;;;;;;44.17;17.30;;;;;;;-2.58;75.98;100309.81;4495507;31;35107;-78
2022/01/20 01:26:33;;;;;;;39.10;16.83;;;;;;;-2.53;76.21;100306.53;4472373;31;34210;-79
2022/01/20 01:30:12;;;;;;;41.10;16.95;;;;;;;-2.43;76.79;100298.84;4481412;31;35778;-79
2022/01/20 01:32:37;;;;;;;35.35;15.95;;;;;;;-2.43;77.80;100296.16;4473497;31;36047;-78
2022/01/20 01:35:27;;;;;;;41.97;17.70;;;;;;;-2.49;79.27;100280.91;4472638;31;35825;-79
2022/01/20 01:41:10;;;;;;;47.45;18.83;;;;;;;-2.53;79.68;100269.78;4484126;31;35027;-79
2022/01/20 01:44:01;;;;;;;48.80;19.60;;;;;;;-2.41;79.70;100264.59;4477405;31;34409;-79
2022/01/20 01:46:48;;;;;;;43.30;18.92;;;;;;;-2.54;79.96;100269.97;4478456;31;34304;-79
2022/01/20 01:49:34;;;;;;;44.45;18.00;;;;;;;-2.82;82.84;100243.41;4480813;31;34614;-79
2022/01/20 01:52:21;;;;;;;46.75;18.27;;;;;;;-2.58;81.95;100232.03;4486119;31;35796;-79
2022/01/20 01:55:10;;;;;;;47.67;18.83;;;;;;;-3.44;85.38;100235.59;4482860;31;34668;-79
2022/01/20 01:57:57;;;;;;;53.28;20.52;;;;;;;-3.13;86.84;100228.81;4486770;31;34190;-79
2022/01/20 02:00:44;;;;;;;40.25;17.33;;;;;;;-3.21;86.79;100234.38;4479066;31;36153;-79
2022/01/20 02:03:33;;;;;;;44.78;19.70;;;;;;;-2.31;83.46;100211.28;4487511;31;34735;-79
2022/01/20 02:18:48;;;;;;;51.97;20.23;;;;;;;-2.53;85.02;100183.09;4483067;31;34689;-79
2022/01/20 02:21:46;;;;;;;48.08;19.92;;;;;;;-2.45;84.23;100176.66;4485023;31;35278;-79
2022/01/20 02:24:32;;;;;;;45.78;20.33;;;;;;;-1.94;81.10;100171.22;4483013;31;34633;-79
2022/01/20 02:27:19;;;;;;;43.65;19.17;;;;;;;-3.43;85.91;100172.09;4485602;31;34968;-79
2022/01/20 02:30:06;;;;;;;41.58;19.20;;;;;;;-2.44;84.53;100165.72;4483696;31;34798;-79
2022/01/20 02:33:02;;;;;;;46.55;19.17;;;;;;;-3.25;88.69;100164.25;4482148;31;34401;-79
2022/01/20 02:35:58;;;;;;;45.38;18.62;;;;;;;-3.71;90.06;100159.72;4477997;31;34694;-79
2022/01/20 02:38:52;;;;;;;42.30;17.87;;;;;;;-3.21;88.46;100162.81;4482583;31;35902;-78
2022/01/20 02:44:57;;;;;;;23.62;10.43;;;;;;;-3.64;91.99;100155.22;4483651;31;35130;-79
2022/01/20 02:47:44;;;;;;;30.55;12.93;;;;;;;-3.55;90.61;100153.16;4495309;31;35159;-78
2022/01/20 02:50:30;;;;;;;31.35;13.30;;;;;;;-3.76;91.39;100146.13;4480451;31;34609;-79
2022/01/20 02:53:17;;;;;;;34.15;13.07;;;;;;;-3.46;88.14;100151.09;4486531;31;34560;-78
2022/01/20 02:56:06;;;;;;;27.40;12.90;;;;;;;-5.01;97.49;100145.53;4480814;31;34331;-79
2022/01/20 02:58:53;;;;;;;28.48;12.35;;;;;;;-3.89;93.16;100143.44;4484072;31;35288;-79
2022/01/20 03:01:39;;;;;;;30.52;11.85;;;;;;;-4.87;96.17;100140.25;4496612;31;35079;-79
2022/01/20 03:04:26;;;;;;;30.17;13.25;;;;;;;-3.98;91.88;100125.94;4479850;31;33336;-79
2022/01/20 03:07:13;;;;;;;29.63;11.82;;;;;;;-4.84;93.83;100148.72;4475082;31;35191;-78
2022/01/20 03:09:59;;;;;;;29.73;11.82;;;;;;;-3.96;89.93;100123.88;4494496;31;35198;-79
2022/01/20 03:12:45;;;;;;;26.27;11.07;;;;;;;-4.27;89.76;100124.44;4491726;31;33958;-79
2022/01/20 03:15:34;;;;;;;30.08;12.88;;;;;;;-4.27;93.34;100111.87;4480143;31;34329;-79
2022/01/20 03:18:22;;;;;;;25.55;11.35;;;;;;;-4.50;91.78;100122.09;4482533;31;35091;-79
2022/01/20 03:21:08;;;;;;;29.60;12.82;;;;;;;-3.74;90.37;100114.63;4481853;31;35468;-79
2022/01/20 03:23:54;;;;;;;29.33;11.80;;;;;;;-4.14;89.48;100111.91;4479764;31;33904;-79
2022/01/20 03:26:41;;;;;;;26.30;11.93;;;;;;;-3.42;88.74;100104.09;4483229;31;34693;-79
2022/01/20 03:29:27;;;;;;;29.27;11.18;;;;;;;-3.54;86.67;100108.44;4483031;31;34380;-79
2022/01/20 03:32:14;;;;;;;31.23;11.80;;;;;;;-2.81;83.95;100078.78;4483857;31;34330;-79
2022/01/20 03:35:03;;;;;;;27.77;11.02;;;;;;;-2.69;81.96;100087.00;4481768;31;36025;-79
2022/01/20 03:37:49;;;;;;;24.63;10.60;;;;;;;-2.71;81.82;100079.97;4482411;31;34598;-78
2022/01/20 03:40:36;;;;;;;25.23;10.48;;;;;;;-2.52;81.62;100082.78;4477837;31;34249;-79
2022/01/20 03:43:23;;;;;;;29.45;12.02;;;;;;;-3.28;83.11;100084.28;4480686;31;35287;-79
2022/01/20 03:46:12;;;;;;;28.83;12.05;;;;;;;-2.56;81.21;100070.81;4482687;31;34933;-78
2022/01/20 03:49:09;;;;;;;26.92;11.48;;;;;;;-3.03;82.51;100065.66;4482494;31;34239;-79
2022/01/20 03:51:56;;;;;;;27.13;11.18;;;;;;;-3.74;85.84;100070.94;4480044;31;33812;-79
2022/01/20 03:54:48;;;;;;;26.77;10.55;;;;;;;-3.89;87.09;100077.34;4490137;31;34700;-78
2022/01/20 03:57:39;;;;;;;28.25;11.73;;;;;;;-2.84;82.34;100063.94;4475522;31;35557;-79
2022/01/20 04:00:29;;;;;;;22.35;10.57;;;;;;;-2.42;80.36;100061.69;4475893;31;34588;-79
2022/01/20 04:03:17;;;;;;;26.70;10.93;;;;;;;-2.30;79.57;100059.12;4486411;31;35193;-78
2022/01/20 04:06:04;;;;;;;25.08;10.43;;;;;;;-2.39;78.73;100055.88;4485937;31;34130;-79
2022/01/20 04:08:51;;;;;;;30.62;11.45;;;;;;;-2.57;78.99;100064.63;4489679;31;35001;-79
2022/01/20 04:11:39;;;;;;;25.20;11.40;;;;;;;-2.53;78.78;100049.75;4492709;31;34706;-79
2022/01/20 04:14:28;;;;;;;26.92;11.95;;;;;;;-2.51;78.45;100047.66;4484703;31;33904;-78
2022/01/20 04:17:19;;;;;;;26.77;10.60;;;;;;;-2.84;79.50;100055.91;4482472;31;35625;-79
2022/01/20 04:20:06;;;;;;;24.63;11.27;;;;;;;-2.57;79.88;100055.75;4482675;31;35264;-79
2022/01/20 04:22:52;;;;;;;31.55;11.88;;;;;;;-2.45;79.53;100051.34;4466652;31;33644;-79
2022/01/20 04:25:38;;;;;;;29.92;13.18;;;;;;;-2.52;78.94;100055.94;4489117;31;35744;-79
2022/01/20 04:28:25;;;;;;;31.30;11.70;;;;;;;-2.66;79.60;100055.19;4489578;31;34618;-79
2022/01/20 04:31:12;;;;;;;36.13;13.90;;;;;;;-2.65;79.74;100062.19;4484879;31;33763;-79
2022/01/20 04:34:00;;;;;;;35.67;14.15;;;;;;;-2.75;79.76;100056.47;4480892;31;35543;-79
2022/01/20 04:36:50;;;;;;;35.92;13.90;;;;;;;-2.90;80.71;100056.75;4474102;31;35057;-79
2022/01/20 04:39:43;;;;;;;34.03;13.27;;;;;;;-2.58;80.17;100062.19;4479533;31;34479;-79
2022/01/20 04:42:33;;;;;;;25.65;13.05;;;;;;;-2.38;78.98;100068.25;4463350;31;34627;-79
2022/01/20 04:45:28;;;;;;;31.30;13.38;;;;;;;-2.51;79.72;100076.34;4473966;31;34260;-79
2022/01/20 04:57:35;;;;;;;26.50;11.98;;;;;;;-2.88;80.82;100084.16;4489259;31;35439;-79
2022/01/20 05:00:22;;;;;;;29.27;12.32;;;;;;;-2.88;80.10;100072.62;4490650;31;34163;-79
2022/01/20 05:03:11;;;;;;;35.83;14.20;;;;;;;-2.92;79.83;100066.03;4479349;31;34618;-79
2022/01/20 05:05:58;;;;;;;32.10;12.65;;;;;;;-2.94;79.14;100056.34;4473760;31;34591;-79
2022/01/20 05:08:44;;;;;;;32.03;12.15;;;;;;;-2.89;79.12;100057.56;4484044;31;35565;-79
2022/01/20 05:11:33;;;;;;;37.22;11.95;;;;;;;-3.09;79.76;100071.88;4487561;31;34867;-79
2022/01/20 05:14:20;;;;;;;32.83;13.27;;;;;;;-2.84;79.86;100063.13;4493299;31;34660;-79
2022/01/20 05:17:06;;;;;;;34.72;12.52;;;;;;;-2.95;80.05;100051.19;4494948;31;35142;-79
2022/01/20 05:19:52;;;;;;;33.05;14.77;;;;;;;-2.94;80.20;100052.84;4474174;31;34732;-79
2022/01/20 05:22:39;;;;;;;33.70;13.73;;;;;;;-3.40;82.13;100059.16;4474231;31;33985;-79
2022/01/20 05:25:26;;;;;;;30.77;14.18;;;;;;;-3.38;81.88;100062.47;4486877;31;34664;-79
2022/01/20 05:28:13;;;;;;;33.50;14.68;;;;;;;-3.32;81.53;100077.69;4477346;31;35933;-79
2022/01/20 05:31:00;;;;;;;35.85;14.30;;;;;;;-3.45;82.40;100067.81;4479545;31;34176;-79
2022/01/20 05:33:46;;;;;;;31.33;13.85;;;;;;;-3.57;83.98;100060.63;4496402;31;34265;-79
2022/01/20 05:36:33;;;;;;;37.92;14.05;;;;;;;-3.43;83.32;100057.72;4496869;31;34725;-79
2022/01/20 05:39:19;;;;;;;30.67;14.07;;;;;;;-3.44;84.18;100057.94;4482708;31;36100;-79
2022/01/20 05:42:07;;;;;;;32.03;14.82;;;;;;;-3.44;84.79;100063.31;4484623;31;34664;-79
2022/01/20 05:44:54;;;;;;;30.17;13.00;;;;;;;-3.27;83.97;100056.47;4484378;31;33781;-80
2022/01/20 05:47:45;;;;;;;32.47;13.60;;;;;;;-3.54;86.33;100055.69;4481700;31;35596;-80
2022/01/20 05:50:36;;;;;;;31.67;14.07;;;;;;;-3.43;86.50;100055.03;4484984;31;36005;-79
2022/01/20 05:53:22;;;;;;;38.55;14.68;;;;;;;-3.20;86.07;100051.88;4480571;31;34537;-80
2022/01/20 05:56:08;;;;;;;29.80;13.27;;;;;;;-3.14;85.77;100054.78;4481286;31;34220;-80
2022/01/20 05:58:59;;;;;;;35.80;15.35;;;;;;;-3.03;85.82;100049.56;4479672;31;35510;-79
2022/01/20 06:01:52;;;;;;;28.52;13.40;;;;;;;-2.78;85.53;100060.41;4462407;31;35802;-80
2022/01/20 06:04:39;;;;;;;36.97;15.02;;;;;;;-2.76;85.24;100068.22;4472418;31;34069;-80
2022/01/20 06:07:26;;;;;;;36.10;15.13;;;;;;;-2.85;86.56;100062.28;4479255;31;35071;-79
2022/01/20 06:10:13;;;;;;;31.25;13.98;;;;;;;-2.81;85.89;100057.34;4484256;31;34623;-80
2022/01/20 06:12:59;;;;;;;37.22;15.95;;;;;;;-3.31;87.92;100052.53;4484049;31;34471;-80
2022/01/20 06:15:46;;;;;;;40.17;17.15;;;;;;;-3.25;87.17;100057.06;4482885;31;34863;-80
2022/01/20 06:18:33;;;;;;;41.42;16.87;;;;;;;-3.23;86.61;100055.00;4479376;31;35320;-80
2022/01/20 06:21:20;;;;;;;39.78;18.42;;;;;;;-3.10;86.17;100045.25;4479856;31;35336;-80
2022/01/20 06:24:07;;;;;;;49.90;20.30;;;;;;;-3.34;87.57;100052.97;4495630;31;34928;-80
2022/01/20 06:26:53;;;;;;;54.17;21.55;;;;;;;-3.87;92.70;100053.03;4496356;31;34709;-80
2022/01/20 06:29:41;;;;;;;50.08;20.90;;;;;;;-2.92;88.63;100034.69;4490628;31;34251;-80
2022/01/20 06:32:28;;;;;;;41.03;16.42;;;;;;;-2.97;90.20;100047.91;4481550;31;34434;-80
2022/01/20 06:35:14;;;;;;;34.38;15.38;;;;;;;-2.45;88.50;100054.03;4494692;31;34964;-80
2022/01/20 06:38:02;;;;;;;40.70;15.25;;;;;;;-2.45;88.35;100045.97;4481244;31;34643;-81
2022/01/20 06:40:49;;;;;;;37.55;15.25;;;;;;;-2.63;90.17;100054.75;4457282;31;35159;-80
2022/01/20 06:43:35;;;;;;;44.03;16.90;;;;;;;-1.91;88.44;100057.19;4481573;31;34616;-80
2022/01/20 06:46:22;;;;;;;43.60;18.00;;;;;;;-3.26;91.85;100058.09;4483082;31;34921;-80
2022/01/20 06:49:10;;;;;;;44.60;16.05;;;;;;;-3.51;93.89;100062.47;4478556;31;34142;-80
2022/01/20 06:51:58;;;;;;;37.10;16.70;;;;;;;-2.53;91.06;100041.72;4477236;31;35170;-80
2022/01/20 06:54:45;;;;;;;40.65;16.60;;;;;;;-2.85;91.01;100040.00;4480334;31;35337;-81
2022/01/20 06:57:40;;;;;;;38.47;15.90;;;;;;;-2.45;92.08;100039.78;4471446;31;35030;-81
2022/01/20 07:00:27;;;;;;;42.85;15.60;;;;;;;-2.10;90.32;100049.06;4480848;31;34747;-81
2022/01/20 07:03:14;;;;;;;42.60;16.37;;;;;;;-2.86;94.34;100038.38;4478259;31;33739;-81
2022/01/20 07:06:00;;;;;;;36.42;16.50;;;;;;;-2.57;94.12;100028.94;4483028;31;35462;-81
2022/01/20 07:08:48;;;;;;;36.45;16.42;;;;;;;-2.76;94.50;100017.25;4482178;31;35017;-81
2022/01/20 07:11:35;;;;;;;32.60;15.60;;;;;;;-1.95;91.45;100013.81;4476514;31;34760;-81
2022/01/20 07:14:21;;;;;;;37.83;16.20;;;;;;;-2.28;93.30;100020.28;4480089;31;34313;-81
2022/01/20 07:17:11;;;;;;;38.63;18.75;;;;;;;-2.57;94.67;100015.50;4487902;31;35046;-81
2022/01/20 07:19:59;;;;;;;43.13;19.62;;;;;;;-2.74;96.14;100015.19;4479953;31;34507;-81
2022/01/20 07:22:45;;;;;;;41.22;18.37;;;;;;;-2.91;97.96;100014.88;4497264;31;34776;-81
2022/01/20 07:25:32;;;;;;;58.05;20.70;;;;;;;-2.35;97.80;100010.63;4494005;31;34901;-82
2022/01/20 07:28:19;;;;;;;43.13;17.60;;;;;;;-2.15;95.29;99991.69;4474385;31;35126;-82
2022/01/20 07:31:06;;;;;;;42.67;15.80;;;;;;;-2.40;96.82;99997.84;4474681;31;35991;-82
2022/01/20 07:33:53;;;;;;;39.33;17.55;;;;;;;-1.58;94.12;99990.53;4483070;31;34670;-82
2022/01/20 07:36:39;;;;;;;46.97;18.35;;;;;;;-1.97;94.23;100004.34;4485234;31;35071;-82
2022/01/20 07:39:26;;;;;;;47.65;17.42;;;;;;;-2.18;94.63;99997.50;4482274;31;34578;-82
2022/01/20 07:42:12;;;;;;;41.67;16.90;;;;;;;-1.75;93.46;100002.91;4488879;31;34988;-82
2022/01/20 07:45:05;;;;;;;38.17;16.12;;;;;;;-1.56;92.40;99990.31;4484686;31;34610;-81
2022/01/20 07:47:52;;;;;;;34.08;15.02;;;;;;;-2.18;95.79;99986.78;4473932;31;35171;-82
2022/01/20 07:50:38;;;;;;;41.28;16.77;;;;;;;-1.90;95.87;99987.13;4484239;31;35535;-82
2022/01/20 07:53:27;;;;;;;41.22;15.98;;;;;;;-1.89;94.73;99980.72;4496966;31;36491;-81
2022/01/20 07:56:14;;;;;;;36.05;17.83;;;;;;;-1.23;93.66;99986.44;4488434;31;34277;-82
2022/01/20 07:59:03;;;;;;;36.63;16.27;;;;;;;-1.84;94.97;99983.56;4454503;31;34242;-82
2022/01/20 08:01:51;;;;;;;45.10;17.30;;;;;;;-1.05;93.64;99985.59;4478283;31;35193;-82
2022/01/20 08:04:38;;;;;;;34.55;16.00;;;;;;;-1.46;94.21;99987.94;4485023;31;34755;-83
2022/01/20 08:07:25;;;;;;;44.10;18.90;;;;;;;-0.35;90.66;99996.62;4492558;31;34777;-77
2022/01/20 08:10:12;;;;;;;49.25;20.30;;;;;;;-0.64;91.97;99987.53;4489884;31;35494;-77
2022/01/20 08:12:59;;;;;;;73.15;22.13;;;;;;;0.04;89.19;99996.22;4477427;32;35492;-77
2022/01/20 08:15:46;;;;;;;38.13;17.30;;;;;;;0.53;86.48;99991.41;4474266;32;34934;-77
2022/01/20 08:18:34;;;;;;;37.10;15.57;;;;;;;0.14;87.80;99993.75;4486233;32;34746;-77
2022/01/20 08:21:20;;;;;;;35.40;16.15;;;;;;;0.07;87.64;99993.87;4474346;32;34192;-77
2022/01/20 08:24:10;;;;;;;35.15;13.55;;;;;;;-0.71;91.13;99998.41;4486148;32;35481;-77
2022/01/20 08:26:57;;;;;;;30.30;13.98;;;;;;;-0.20;90.28;99998.88;4474156;32;35990;-77
2022/01/20 08:29:43;;;;;;;31.25;13.65;;;;;;;-0.18;89.45;99995.97;4489693;31;35574;-76
2022/01/20 08:32:31;;;;;;;29.85;15.23;;;;;;;-0.22;89.84;99995.63;4492281;31;34198;-76
2022/01/20 08:35:19;;;;;;;45.70;18.62;;;;;;;0.36;87.95;99994.81;4500271;31;34630;-78
2022/01/20 08:38:07;;;;;;;39.45;16.37;;;;;;;0.16;87.65;100003.25;4479074;31;33782;-78
2022/01/20 08:40:53;;;;;;;36.63;16.98;;;;;;;-0.29;89.52;99998.38;4480369;31;35494;-78
2022/01/20 08:43:40;;;;;;;35.33;15.73;;;;;;;0.02;89.50;99995.63;4485054;31;34307;-79
2022/01/20 08:46:32;;;;;;;33.10;14.77;;;;;;;-0.19;90.55;99992.44;4489536;31;34643;-79
2022/01/20 08:49:20;;;;;;;30.90;13.88;;;;;;;0.19;87.94;99980.41;4486711;31;35539;-79
2022/01/20 08:52:06;;;;;;;29.15;14.70;;;;;;;-0.44;89.99;99989.94;4480343;31;35191;-79
2022/01/20 08:54:57;;;;;;;31.95;14.93;;;;;;;-0.31;90.46;99976.28;4495161;31;34034;-79
2022/01/20 08:57:45;;;;;;;32.08;13.32;;;;;;;-0.17;90.43;99982.28;4477969;31;34303;-79
2022/01/20 09:00:35;;;;;;;33.40;15.18;;;;;;;-0.31;91.15;99981.66;4480174;31;35017;-79
2022/01/20 09:03:24;;;;;;;38.95;15.02;;;;;;;0.48;87.15;99985.91;4464126;31;34781;-79
2022/01/20 09:06:14;;;;;;;39.25;16.27;;;;;;;0.82;84.48;99974.22;4488429;31;35258;-79
2022/01/20 09:09:00;;;;;;;30.77;13.40;;;;;;;0.86;83.97;99980.00;4490096;31;35573;-79
2022/01/20 09:12:02;;;;;;;25.80;12.63;;;;;;;0.78;84.88;99983.88;4480707;31;36252;-78
2022/01/20 09:18:03;;;;;;;35.88;15.32;;;;;;;0.99;83.76;99990.50;4496547;31;33430;-79
2022/01/20 09:20:50;;;;;;;26.60;13.70;;;;;;;1.51;80.55;99995.00;4476481;31;34085;-79
2022/01/20 09:23:36;;;;;;;29.17;13.38;;;;;;;0.41;85.54;99999.53;4477657;31;33653;-79
2022/01/20 09:26:24;;;;;;;29.63;12.55;;;;;;;0.93;82.91;99996.84;4485728;31;35478;-79
2022/01/20 09:29:11;;;;;;;31.15;13.30;;;;;;;1.86;80.31;99993.97;4486018;31;34162;-79
2022/01/20 09:31:59;;;;;;;33.97;13.60;;;;;;;1.12;82.37;99994.81;4491377;31;34649;-79
2022/01/20 09:34:46;;;;;;;29.33;13.32;;;;;;;1.54;82.34;99986.41;4459539;32;35967;-79
2022/01/20 09:37:34;;;;;;;25.77;12.18;;;;;;;1.17;84.27;99994.91;4459766;32;33437;-82
2022/01/20 09:40:20;;;;;;;26.80;12.73;;;;;;;2.01;80.07;99997.75;4463388;32;34180;-82
2022/01/20 09:43:11;;;;;;;28.48;13.05;;;;;;;2.13;79.13;99996.84;4461067;32;32218;-82
2022/01/20 09:45:57;;;;;;;26.02;12.35;;;;;;;2.25;78.92;99990.28;4455392;32;34557;-82
2022/01/20 09:48:44;;;;;;;58.95;30.33;;;;;;;2.86;77.06;99986.78;4460837;32;35011;-82
2022/01/20 09:51:31;;;;;;;32.95;15.95;;;;;;;1.89;79.86;99994.31;4457471;32;33808;-82
2022/01/20 09:54:18;;;;;;;44.00;23.35;;;;;;;2.03;79.01;99989.41;4454609;32;34510;-82
2022/01/20 09:57:05;;;;;;;33.22;14.77;;;;;;;1.98;80.33;99992.00;4457597;32;34911;-81
2022/01/20 09:59:52;;;;;;;32.45;16.48;;;;;;;1.83;80.59;99980.97;4458086;32;33491;-81
2022/01/20 10:03:10;;;;;;;34.08;14.82;;;;;;;1.98;81.58;99982.00;4449814;32;35442;-81
2022/01/20 10:06:00;;;;;;;24.37;13.57;;;;;;;1.87;82.93;99971.28;4458369;32;35440;-79
2022/01/20 10:08:58;;;;;;;18.80;10.80;;;;;;;1.39;84.69;99975.31;4458566;32;34859;-80
2022/01/20 10:12:06;;;;;;;21.92;11.80;;;;;;;1.82;83.51;99982.81;4447727;32;34611;-78
2022/01/20 10:14:56;;;;;;;21.60;11.15;;;;;;;1.51;86.07;99993.13;4460977;32;35150;-79
2022/01/20 10:17:48;;;;;;;24.25;11.90;;;;;;;1.50;87.12;99979.84;4453266;32;34431;-79
2022/01/20 10:20:35;;;;;;;20.70;11.35;;;;;;;1.52;89.50;99989.34;4463844;32;34927;-77
2022/01/20 10:23:40;;;;;;;19.20;9.20;;;;;;;1.65;91.75;99979.28;4455921;32;35189;-78
2022/01/20 10:26:27;;;;;;;15.63;8.88;;;;;;;1.68;93.75;99966.12;4453411;32;35000;-77
2022/01/20 10:29:15;;;;;;;15.60;7.82;;;;;;;1.64;94.73;99951.47;4449543;32;34711;-78
2022/01/20 10:32:15;;;;;;;18.15;9.77;;;;;;;1.94;93.88;99953.03;4461943;32;35908;-79
2022/01/20 10:35:04;;;;;;;19.55;9.05;;;;;;;1.80;95.95;99937.16;4464372;32;34708;-78
2022/01/20 10:38:09;;;;;;;17.10;8.48;;;;;;;1.98;95.66;99948.78;4467888;32;34286;-77
2022/01/20 10:40:58;;;;;;;19.83;10.50;;;;;;;2.03;96.75;99935.34;4461992;32;34542;-80
2022/01/20 10:43:45;;;;;;;12.75;6.53;;;;;;;2.00;97.13;99935.84;4465017;32;35082;-77
2022/01/20 10:46:51;;;;;;;;;;;;;;;1.97;97.87;99936.34;4464953;32;35167;-77
2022/01/20 10:49:37;;;;;;;15.07;7.97;;;;;;;1.92;98.25;99928.97;4463257;32;34938;-79
2022/01/20 10:52:34;;;;;;;10.65;5.65;;;;;;;1.81;99.74;99921.75;4463637;32;34527;-78
2022/01/20 10:55:31;;;;;;;14.35;6.47;;;;;;;1.82;100.00;99927.97;4462640;32;34588;-79
2022/01/20 10:58:22;;;;;;;13.90;5.65;;;;;;;1.74;100.00;99913.81;4463515;32;34858;-80
2022/01/20 11:01:16;;;;;;;9.70;4.82;;;;;;;2.07;100.00;99898.62;4462260;32;35029;-80
2022/01/20 11:04:03;;;;;;;10.65;5.15;;;;;;;2.13;99.88;99892.22;4464136;32;34599;-79
2022/01/20 11:06:54;;;;;;;11.85;6.05;;;;;;;2.36;98.53;99893.91;4465597;32;34932;-80
2022/01/20 11:09:44;;;;;;;9.07;5.12;;;;;;;2.17;99.33;99887.97;4462537;32;34574;-82
2022/01/20 11:12:32;;;;;;;9.38;4.40;;;;;;;2.39;98.07;99868.22;4462306;32;33857;-82
2022/01/20 11:15:26;;;;;;;7.65;3.75;;;;;;;2.39;97.41;99865.53;4465203;32;34537;-79
2022/01/20 11:18:13;;;;;;;10.35;4.15;;;;;;;2.38;96.28;99889.06;4454457;32;34888;-79
2022/01/20 11:21:02;;;;;;;12.07;5.35;;;;;;;2.43;95.37;99877.50;4465297;32;35184;-78
2022/01/20 11:23:48;;;;;;;8.95;4.40;;;;;;;2.44;96.00;99884.53;4466883;32;34128;-78
2022/01/20 11:26:54;;;;;;;12.02;5.18;;;;;;;2.41;95.67;99879.63;4467149;32;35580;-79
2022/01/20 11:29:49;;;;;;;7.57;3.75;;;;;;;2.39;95.80;99873.63;4464423;32;34505;-80
2022/01/20 11:32:36;;;;;;;8.75;3.65;;;;;;;2.61;93.76;99860.94;4456338;32;34586;-80
2022/01/20 11:35:35;;;;;;;6.97;3.20;;;;;;;2.66;93.49;99842.06;4470059;32;34224;-81
2022/01/20 11:38:23;;;;;;;7.72;4.10;;;;;;;2.74;91.71;99831.88;4472204;32;35064;-79
2022/01/20 11:41:12;;;;;;;6.68;2.97;;;;;;;2.85;90.53;99817.37;4476690;32;34903;-82
2022/01/20 11:44:07;;;;;;;9.95;3.78;;;;;;;3.14;88.22;99826.84;4470461;32;34633;-79
2022/01/20 11:47:07;;;;;;;8.85;3.97;;;;;;;3.09;88.58;99807.84;4467368;32;34828;-82
2022/01/20 11:49:54;;;;;;;9.63;4.07;;;;;;;3.19;88.30;99803.56;4473619;32;35718;-80
2022/01/20 11:52:40;;;;;;;8.52;4.00;;;;;;;3.21;87.31;99809.56;4464068;32;34962;-82
2022/01/20 11:55:53;;;;;;;9.35;4.20;;;;;;;3.32;87.26;99805.84;4473578;32;35714;-83
2022/01/20 11:58:49;;;;;;;8.98;4.20;;;;;;;3.33;86.48;99812.91;4465364;32;33871;-83
2022/01/20 12:01:52;;;;;;;8.45;4.15;;;;;;;3.35;86.92;99802.63;4467218;32;34546;-82
2022/01/20 12:04:40;;;;;;;7.18;3.70;;;;;;;3.65;85.84;99798.53;4457908;32;35111;-83
2022/01/20 12:07:32;;;;;;;6.07;3.30;;;;;;;3.46;86.12;99785.38;4459995;32;34725;-83
2022/01/20 12:10:26;;;;;;;9.32;3.22;;;;;;;3.32;86.46;99778.78;4471259;32;34786;-84
2022/01/20 12:13:16;;;;;;;7.65;3.15;;;;;;;3.29;86.53;99773.88;4461609;32;34626;-84
2022/01/20 12:16:03;;;;;;;6.65;2.97;;;;;;;3.27;86.04;99781.44;4465703;32;35085;-84
2022/01/20 12:18:58;;;;;;;6.43;3.28;;;;;;;3.37;83.99;99781.53;4459451;32;34106;-82
2022/01/20 12:21:49;;;;;;;5.45;2.90;;;;;;;3.46;83.51;99769.12;4473602;32;34340;-82
2022/01/20 12:24:36;;;;;;;7.87;3.60;;;;;;;3.45;82.85;99769.41;4467841;32;34640;-82
2022/01/20 12:27:25;;;;;;;9.00;3.62;;;;;;;3.50;82.31;99769.41;4463498;32;35039;-84
2022/01/20 12:30:22;;;;;;;6.70;2.80;;;;;;;3.71;79.83;99764.94;4471255;32;34726;-83
2022/01/20 12:33:14;;;;;;;6.00;3.00;;;;;;;3.71;78.67;99749.50;4459320;31;33674;-79
2022/01/20 12:36:04;;;;;;;6.72;3.20;;;;;;;3.75;78.30;99741.66;4475822;31;35518;-78
2022/01/20 12:38:52;;;;;;;4.65;2.50;;;;;;;3.57;78.96;99748.34;4477382;31;34748;-80
2022/01/20 12:41:38;;;;;;;7.28;3.12;;;;;;;3.70;77.32;99736.19;4477043;31;35104;-77
2022/01/20 12:44:50;;;;;;;6.40;3.25;;;;;;;3.66;77.71;99740.53;4476852;31;34161;-79
2022/01/20 12:47:37;;;;;;;6.78;3.72;;;;;;;3.68;77.75;99735.66;4491571;31;34527;-79
2022/01/20 12:50:25;;;;;;;6.40;2.90;;;;;;;3.83;77.38;99731.12;4482517;31;36054;-82
2022/01/20 12:53:12;;;;;;;6.12;3.22;;;;;;;3.89;77.16;99723.81;4479044;31;35623;-81
2022/01/20 12:55:59;;;;;;;6.10;3.08;;;;;;;3.70;77.42;99714.50;4491619;31;34197;-79
2022/01/20 12:58:49;;;;;;;5.72;3.00;;;;;;;3.41;78.21;99722.22;4487425;31;34460;-76
2022/01/20 13:01:46;;;;;;;7.57;2.97;;;;;;;3.64;76.96;99721.00;4483265;31;35987;-79
2022/01/20 13:04:34;;;;;;;7.55;3.17;;;;;;;3.50;77.94;99715.22;4473777;31;34625;-79
2022/01/20 13:07:21;;;;;;;5.72;2.60;;;;;;;3.54;76.99;99708.22;4477680;31;33731;-82
2022/01/20 13:10:20;;;;;;;3.35;2.10;;;;;;;3.80;75.70;99695.59;4486429;31;34175;-82
2022/01/20 13:13:15;;;;;;;6.00;2.62;;;;;;;3.76;75.57;99698.03;4480987;31;34934;-80
2022/01/20 13:16:10;;;;;;;5.87;2.65;;;;;;;3.89;74.99;99701.31;4477885;31;35469;-78
2022/01/20 13:19:04;;;;;;;5.70;2.60;;;;;;;4.00;74.21;99713.84;4479313;31;35121;-79
2022/01/20 13:21:53;;;;;;;5.70;2.28;;;;;;;4.24;72.64;99698.75;4482242;31;34667;-83
2022/01/20 13:24:40;;;;;;;4.97;2.25;;;;;;;4.16;72.61;99696.56;4473351;31;36055;-82
2022/01/20 13:27:26;;;;;;;4.95;2.72;;;;;;;4.30;71.41;99675.16;4484991;31;34742;-80
2022/01/20 13:30:27;;;;;;;4.62;2.00;;;;;;;4.26;69.67;99669.44;4490945;31;35052;-80
2022/01/20 13:33:14;;;;;;;3.50;1.60;;;;;;;4.58;68.72;99651.28;4481299;31;35226;-80
2022/01/20 13:36:02;;;;;;;3.70;1.80;;;;;;;4.63;68.63;99656.72;4480733;31;35525;-80
2022/01/20 13:38:49;;;;;;;3.97;1.87;;;;;;;4.68;68.22;99675.72;4466319;31;35567;-79
2022/01/20 13:41:36;;;;;;;3.55;1.92;;;;;;;4.58;68.44;99660.28;4480666;31;34214;-79
2022/01/20 13:47:29;;;;;;;6.32;2.35;;;;;;;4.48;68.42;99676.53;4481044;31;35992;-81
2022/01/20 13:50:18;;;;;;;4.80;1.98;;;;;;;4.48;69.02;99671.91;4480937;31;35796;-79
2022/01/20 13:53:22;;;;;;;5.72;1.92;;;;;;;4.32;69.91;99672.97;4479016;31;34286;-80
2022/01/20 13:56:12;;;;;;;2.78;1.35;;;;;;;4.41;69.60;99662.41;4482862;31;35603;-80
2022/01/20 13:59:14;;;;;;;4.05;1.90;;;;;;;4.41;68.03;99655.09;4480890;31;34479;-81
2022/01/20 14:02:18;;;;;;;5.28;2.22;;;;;;;4.14;69.23;99665.34;4467796;31;35485;-80
2022/01/20 14:05:05;;;;;;;6.10;2.15;;;;;;;4.22;69.45;99645.84;4480879;31;35041;-82
2022/01/20 14:07:51;;;;;;;4.43;2.45;;;;;;;3.94;70.77;99652.56;4482145;31;33595;-79
2022/01/20 14:10:37;;;;;;;3.97;1.90;;;;;;;3.97;71.12;99669.09;4475154;31;35017;-83